sensor_id;sensor_type;location;lat;lon;timestamp;P1;durP1;ratioP1;P2;durP2;ratioP2
12480;SDS011;6305;48.398;11.762;2022-09-09T00:01:28;12.75;;;7.88;;
12480;SDS011;6305;48.398;11.762;2022-09-09T00:04:05;11.70;;;8.40;;
12480;SDS011;6305;48.398;11.762;2022-09-09T00:06:43;13.10;;;8.88;;
12480;SDS011;6305;48.398;11.762;2022-09-09T00:09:13;12.98;;;8.65;;
12480;SDS011;6305;48.398;11.762;2022-09-09T00:11:47;13.00;;;8.15;;
12480;SDS011;6305;48.398;11.762;2022-09-09T00:14:20;11.95;;;8.40;;
12480;SDS011;6305;48.398;11.762;2022-09-09T00:16:54;13.50;;;8.82;;
12480;SDS011;6305;48.398;11.762;2022-09-09T00:19:27;13.25;;;8.43;;
12480;SDS011;6305;48.398;11.762;2022-09-09T00:22:06;10.95;;;8.07;;
12480;SDS011;6305;48.398;11.762;2022-09-09T00:24:42;13.35;;;7.88;;
12480;SDS011;6305;48.398;11.762;2022-09-09T00:27:13;12.38;;;8.15;;
12480;SDS011;6305;48.398;11.762;2022-09-09T00:29:52;13.55;;;7.78;;
12480;SDS011;6305;48.398;11.762;2022-09-09T00:32:22;15.15;;;8.30;;
12480;SDS011;6305;48.398;11.762;2022-09-09T00:34:56;13.20;;;9.02;;
12480;SDS011;6305;48.398;11.762;2022-09-09T00:37:27;11.68;;;8.10;;
12480;SDS011;6305;48.398;11.762;2022-09-09T00:39:57;15.27;;;8.90;;
12480;SDS011;6305;48.398;11.762;2022-09-09T00:42:31;14.88;;;8.85;;
12480;SDS011;6305;48.398;11.762;2022-09-09T00:45:12;13.15;;;8.55;;
12480;SDS011;6305;48.398;11.762;2022-09-09T00:48:02;13.43;;;8.32;;
12480;SDS011;6305;48.398;11.762;2022-09-09T00:50:38;13.57;;;8.38;;
12480;SDS011;6305;48.398;11.762;2022-09-09T00:53:19;13.68;;;9.18;;
12480;SDS011;6305;48.398;11.762;2022-09-09T00:55:57;15.23;;;9.77;;
12480;SDS011;6305;48.398;11.762;2022-09-09T00:58:32;15.30;;;8.23;;
12480;SDS011;6305;48.398;11.762;2022-09-09T01:01:02;13.50;;;8.38;;
12480;SDS011;6305;48.398;11.762;2022-09-09T01:03:34;14.95;;;8.40;;
12480;SDS011;6305;48.398;11.762;2022-09-09T01:06:11;14.57;;;8.23;;
12480;SDS011;6305;48.398;11.762;2022-09-09T01:08:58;13.15;;;8.25;;
12480;SDS011;6305;48.398;11.762;2022-09-09T01:11:42;13.27;;;8.07;;
12480;SDS011;6305;48.398;11.762;2022-09-09T01:14:24;13.20;;;8.20;;
12480;SDS011;6305;48.398;11.762;2022-09-09T01:17:01;15.23;;;8.00;;
12480;SDS011;6305;48.398;11.762;2022-09-09T01:19:35;13.60;;;8.60;;
12480;SDS011;6305;48.398;11.762;2022-09-09T01:22:10;13.32;;;8.63;;
12480;SDS011;6305;48.398;11.762;2022-09-09T01:24:48;18.13;;;9.57;;
12480;SDS011;6305;48.398;11.762;2022-09-09T01:27:37;13.25;;;8.80;;
12480;SDS011;6305;48.398;11.762;2022-09-09T01:30:07;14.60;;;8.68;;
12480;SDS011;6305;48.398;11.762;2022-09-09T01:32:40;13.13;;;9.25;;
12480;SDS011;6305;48.398;11.762;2022-09-09T01:35:09;14.73;;;8.93;;
12480;SDS011;6305;48.398;11.762;2022-09-09T01:37:41;14.70;;;9.23;;
12480;SDS011;6305;48.398;11.762;2022-09-09T01:40:08;15.23;;;8.95;;
12480;SDS011;6305;48.398;11.762;2022-09-09T01:42:37;17.88;;;9.43;;
12480;SDS011;6305;48.398;11.762;2022-09-09T01:45:06;13.93;;;8.63;;
12480;SDS011;6305;48.398;11.762;2022-09-09T01:47:36;13.32;;;8.68;;
12480;SDS011;6305;48.398;11.762;2022-09-09T01:50:04;13.20;;;8.82;;
12480;SDS011;6305;48.398;11.762;2022-09-09T01:52:33;13.35;;;8.93;;
12480;SDS011;6305;48.398;11.762;2022-09-09T01:55:02;13.98;;;9.77;;
12480;SDS011;6305;48.398;11.762;2022-09-09T01:57:30;14.27;;;9.40;;
12480;SDS011;6305;48.398;11.762;2022-09-09T02:00:03;14.48;;;9.60;;
12480;SDS011;6305;48.398;11.762;2022-09-09T02:02:34;17.27;;;10.52;;
12480;SDS011;6305;48.398;11.762;2022-09-09T02:05:08;16.95;;;9.43;;
12480;SDS011;6305;48.398;11.762;2022-09-09T02:07:40;10.82;;;7.85;;
12480;SDS011;6305;48.398;11.762;2022-09-09T02:10:21;14.90;;;9.07;;
12480;SDS011;6305;48.398;11.762;2022-09-09T02:12:53;13.57;;;9.30;;
12480;SDS011;6305;48.398;11.762;2022-09-09T02:15:31;18.58;;;9.85;;
12480;SDS011;6305;48.398;11.762;2022-09-09T02:18:01;12.55;;;8.88;;
12480;SDS011;6305;48.398;11.762;2022-09-09T02:20:33;15.65;;;9.57;;
12480;SDS011;6305;48.398;11.762;2022-09-09T02:23:02;14.68;;;10.27;;
12480;SDS011;6305;48.398;11.762;2022-09-09T02:25:32;18.02;;;9.48;;
12480;SDS011;6305;48.398;11.762;2022-09-09T02:28:02;17.42;;;10.45;;
12480;SDS011;6305;48.398;11.762;2022-09-09T02:30:32;16.85;;;9.98;;
12480;SDS011;6305;48.398;11.762;2022-09-09T02:33:01;16.52;;;10.38;;
12480;SDS011;6305;48.398;11.762;2022-09-09T02:35:31;16.30;;;10.27;;
12480;SDS011;6305;48.398;11.762;2022-09-09T02:38:02;16.00;;;9.73;;
12480;SDS011;6305;48.398;11.762;2022-09-09T02:40:33;17.35;;;9.68;;
12480;SDS011;6305;48.398;11.762;2022-09-09T02:43:00;16.25;;;10.35;;
12480;SDS011;6305;48.398;11.762;2022-09-09T02:45:29;16.85;;;11.10;;
12480;SDS011;6305;48.398;11.762;2022-09-09T02:48:03;20.52;;;10.63;;
12480;SDS011;6305;48.398;11.762;2022-09-09T02:50:37;19.13;;;10.10;;
12480;SDS011;6305;48.398;11.762;2022-09-09T02:53:12;18.60;;;9.57;;
12480;SDS011;6305;48.398;11.762;2022-09-09T02:55:55;15.82;;;9.50;;
12480;SDS011;6305;48.398;11.762;2022-09-09T02:58:25;14.73;;;10.10;;
12480;SDS011;6305;48.398;11.762;2022-09-09T03:00:54;17.42;;;10.05;;
12480;SDS011;6305;48.398;11.762;2022-09-09T03:03:22;16.90;;;10.15;;
12480;SDS011;6305;48.398;11.762;2022-09-09T03:05:50;18.05;;;10.68;;
12480;SDS011;6305;48.398;11.762;2022-09-09T03:08:17;17.65;;;10.13;;
12480;SDS011;6305;48.398;11.762;2022-09-09T03:10:45;16.25;;;10.50;;
12480;SDS011;6305;48.398;11.762;2022-09-09T03:13:11;15.52;;;9.48;;
12480;SDS011;6305;48.398;11.762;2022-09-09T03:15:40;15.43;;;9.40;;
12480;SDS011;6305;48.398;11.762;2022-09-09T03:18:08;15.90;;;9.38;;
12480;SDS011;6305;48.398;11.762;2022-09-09T03:20:35;16.58;;;9.50;;
12480;SDS011;6305;48.398;11.762;2022-09-09T03:23:02;16.77;;;10.13;;
12480;SDS011;6305;48.398;11.762;2022-09-09T03:25:29;18.98;;;10.00;;
12480;SDS011;6305;48.398;11.762;2022-09-09T03:27:57;16.38;;;9.77;;
12480;SDS011;6305;48.398;11.762;2022-09-09T03:30:24;18.48;;;10.77;;
12480;SDS011;6305;48.398;11.762;2022-09-09T03:32:53;15.43;;;10.65;;
12480;SDS011;6305;48.398;11.762;2022-09-09T03:35:23;18.25;;;10.10;;
12480;SDS011;6305;48.398;11.762;2022-09-09T03:37:50;18.13;;;10.85;;
12480;SDS011;6305;48.398;11.762;2022-09-09T03:40:16;21.10;;;10.57;;
12480;SDS011;6305;48.398;11.762;2022-09-09T03:42:44;20.40;;;11.25;;
12480;SDS011;6305;48.398;11.762;2022-09-09T03:45:11;18.15;;;10.80;;
12480;SDS011;6305;48.398;11.762;2022-09-09T03:47:37;15.45;;;10.55;;
12480;SDS011;6305;48.398;11.762;2022-09-09T03:50:04;18.50;;;11.18;;
12480;SDS011;6305;48.398;11.762;2022-09-09T03:52:35;18.83;;;10.75;;
12480;SDS011;6305;48.398;11.762;2022-09-09T03:55:03;18.98;;;11.18;;
12480;SDS011;6305;48.398;11.762;2022-09-09T03:57:30;20.60;;;11.13;;
12480;SDS011;6305;48.398;11.762;2022-09-09T03:59:59;18.25;;;11.13;;
12480;SDS011;6305;48.398;11.762;2022-09-09T04:02:27;19.67;;;10.93;;
12480;SDS011;6305;48.398;11.762;2022-09-09T04:04:53;16.10;;;10.65;;
12480;SDS011;6305;48.398;11.762;2022-09-09T04:07:21;17.95;;;10.50;;
12480;SDS011;6305;48.398;11.762;2022-09-09T04:09:49;17.23;;;10.10;;
12480;SDS011;6305;48.398;11.762;2022-09-09T04:12:16;16.45;;;11.07;;
12480;SDS011;6305;48.398;11.762;2022-09-09T04:14:43;17.52;;;10.70;;
12480;SDS011;6305;48.398;11.762;2022-09-09T04:17:09;16.05;;;10.57;;
12480;SDS011;6305;48.398;11.762;2022-09-09T04:19:36;19.10;;;10.38;;
12480;SDS011;6305;48.398;11.762;2022-09-09T04:22:03;15.77;;;9.77;;
12480;SDS011;6305;48.398;11.762;2022-09-09T04:24:30;15.93;;;9.50;;
12480;SDS011;6305;48.398;11.762;2022-09-09T04:26:58;15.48;;;9.68;;
12480;SDS011;6305;48.398;11.762;2022-09-09T04:29:25;14.35;;;9.63;;
12480;SDS011;6305;48.398;11.762;2022-09-09T04:31:51;15.98;;;8.98;;
12480;SDS011;6305;48.398;11.762;2022-09-09T04:34:18;15.77;;;9.20;;
12480;SDS011;6305;48.398;11.762;2022-09-09T04:36:45;15.20;;;9.70;;
12480;SDS011;6305;48.398;11.762;2022-09-09T04:39:11;16.38;;;9.55;;
12480;SDS011;6305;48.398;11.762;2022-09-09T04:41:38;13.63;;;8.88;;
12480;SDS011;6305;48.398;11.762;2022-09-09T04:44:06;15.43;;;9.55;;
12480;SDS011;6305;48.398;11.762;2022-09-09T04:46:33;17.38;;;9.57;;
12480;SDS011;6305;48.398;11.762;2022-09-09T04:49:00;15.70;;;9.95;;
12480;SDS011;6305;48.398;11.762;2022-09-09T04:51:27;15.10;;;9.13;;
12480;SDS011;6305;48.398;11.762;2022-09-09T04:53:56;13.38;;;9.57;;
12480;SDS011;6305;48.398;11.762;2022-09-09T04:56:22;14.80;;;9.23;;
12480;SDS011;6305;48.398;11.762;2022-09-09T04:58:51;14.90;;;9.10;;
12480;SDS011;6305;48.398;11.762;2022-09-09T05:01:21;15.95;;;8.88;;
12480;SDS011;6305;48.398;11.762;2022-09-09T05:03:49;13.90;;;9.50;;
12480;SDS011;6305;48.398;11.762;2022-09-09T05:06:17;14.35;;;8.93;;
12480;SDS011;6305;48.398;11.762;2022-09-09T05:08:45;13.82;;;8.90;;
12480;SDS011;6305;48.398;11.762;2022-09-09T05:11:14;15.77;;;8.93;;
12480;SDS011;6305;48.398;11.762;2022-09-09T05:13:42;14.88;;;9.27;;
12480;SDS011;6305;48.398;11.762;2022-09-09T05:16:09;18.05;;;9.38;;
12480;SDS011;6305;48.398;11.762;2022-09-09T05:18:38;13.10;;;8.32;;
12480;SDS011;6305;48.398;11.762;2022-09-09T05:21:04;14.35;;;8.82;;
12480;SDS011;6305;48.398;11.762;2022-09-09T05:23:32;15.40;;;8.43;;
12480;SDS011;6305;48.398;11.762;2022-09-09T05:25:59;13.20;;;8.77;;
12480;SDS011;6305;48.398;11.762;2022-09-09T05:28:26;16.67;;;9.40;;
12480;SDS011;6305;48.398;11.762;2022-09-09T05:30:57;15.75;;;9.48;;
12480;SDS011;6305;48.398;11.762;2022-09-09T05:33:25;17.05;;;9.30;;
12480;SDS011;6305;48.398;11.762;2022-09-09T05:35:57;15.57;;;9.20;;
12480;SDS011;6305;48.398;11.762;2022-09-09T05:38:24;16.95;;;9.77;;
12480;SDS011;6305;48.398;11.762;2022-09-09T05:40:52;13.68;;;8.93;;
12480;SDS011;6305;48.398;11.762;2022-09-09T05:43:19;15.88;;;8.88;;
12480;SDS011;6305;48.398;11.762;2022-09-09T05:45:46;14.52;;;10.13;;
12480;SDS011;6305;48.398;11.762;2022-09-09T05:48:13;16.20;;;9.35;;
12480;SDS011;6305;48.398;11.762;2022-09-09T05:50:41;14.52;;;9.30;;
12480;SDS011;6305;48.398;11.762;2022-09-09T05:53:09;14.60;;;9.80;;
12480;SDS011;6305;48.398;11.762;2022-09-09T05:55:36;15.70;;;9.88;;
12480;SDS011;6305;48.398;11.762;2022-09-09T05:58:03;17.08;;;10.00;;
12480;SDS011;6305;48.398;11.762;2022-09-09T06:00:30;14.35;;;9.98;;
12480;SDS011;6305;48.398;11.762;2022-09-09T06:02:57;16.92;;;9.85;;
12480;SDS011;6305;48.398;11.762;2022-09-09T06:05:23;12.55;;;9.60;;
12480;SDS011;6305;48.398;11.762;2022-09-09T06:07:52;13.48;;;9.93;;
12480;SDS011;6305;48.398;11.762;2022-09-09T06:10:20;15.50;;;9.68;;
12480;SDS011;6305;48.398;11.762;2022-09-09T06:12:47;13.23;;;8.85;;
12480;SDS011;6305;48.398;11.762;2022-09-09T06:15:14;16.58;;;8.70;;
12480;SDS011;6305;48.398;11.762;2022-09-09T06:17:40;10.15;;;7.63;;
12480;SDS011;6305;48.398;11.762;2022-09-09T06:20:08;13.25;;;8.10;;
12480;SDS011;6305;48.398;11.762;2022-09-09T06:22:35;13.23;;;8.50;;
12480;SDS011;6305;48.398;11.762;2022-09-09T06:25:02;10.68;;;8.20;;
12480;SDS011;6305;48.398;11.762;2022-09-09T06:27:30;10.27;;;7.68;;
12480;SDS011;6305;48.398;11.762;2022-09-09T06:29:57;10.35;;;7.72;;
12480;SDS011;6305;48.398;11.762;2022-09-09T06:32:24;8.45;;;7.30;;
12480;SDS011;6305;48.398;11.762;2022-09-09T06:34:51;10.00;;;6.78;;
12480;SDS011;6305;48.398;11.762;2022-09-09T06:37:19;10.07;;;6.70;;
12480;SDS011;6305;48.398;11.762;2022-09-09T06:39:45;10.23;;;6.78;;
12480;SDS011;6305;48.398;11.762;2022-09-09T06:42:13;9.20;;;6.32;;
12480;SDS011;6305;48.398;11.762;2022-09-09T06:44:42;8.55;;;6.10;;
12480;SDS011;6305;48.398;11.762;2022-09-09T06:47:09;10.45;;;6.68;;
12480;SDS011;6305;48.398;11.762;2022-09-09T06:49:36;9.73;;;5.95;;
12480;SDS011;6305;48.398;11.762;2022-09-09T06:52:02;8.25;;;6.30;;
12480;SDS011;6305;48.398;11.762;2022-09-09T06:54:29;7.88;;;5.47;;
12480;SDS011;6305;48.398;11.762;2022-09-09T06:56:56;6.03;;;5.20;;
12480;SDS011;6305;48.398;11.762;2022-09-09T06:59:23;8.65;;;5.90;;
12480;SDS011;6305;48.398;11.762;2022-09-09T07:01:52;9.52;;;5.65;;
12480;SDS011;6305;48.398;11.762;2022-09-09T07:04:19;8.73;;;5.30;;
12480;SDS011;6305;48.398;11.762;2022-09-09T07:06:46;8.20;;;5.40;;
12480;SDS011;6305;48.398;11.762;2022-09-09T07:09:13;5.25;;;4.72;;
12480;SDS011;6305;48.398;11.762;2022-09-09T07:11:42;6.35;;;4.88;;
12480;SDS011;6305;48.398;11.762;2022-09-09T07:14:09;5.03;;;4.53;;
12480;SDS011;6305;48.398;11.762;2022-09-09T07:16:39;4.25;;;3.85;;
12480;SDS011;6305;48.398;11.762;2022-09-09T07:19:07;6.97;;;3.75;;
12480;SDS011;6305;48.398;11.762;2022-09-09T07:21:34;7.57;;;4.35;;
12480;SDS011;6305;48.398;11.762;2022-09-09T07:24:01;6.03;;;3.70;;
12480;SDS011;6305;48.398;11.762;2022-09-09T07:26:30;5.60;;;3.30;;
12480;SDS011;6305;48.398;11.762;2022-09-09T07:28:57;4.95;;;3.63;;
12480;SDS011;6305;48.398;11.762;2022-09-09T07:31:24;7.07;;;3.50;;
12480;SDS011;6305;48.398;11.762;2022-09-09T07:33:53;5.68;;;3.10;;
12480;SDS011;6305;48.398;11.762;2022-09-09T07:36:21;5.50;;;3.22;;
12480;SDS011;6305;48.398;11.762;2022-09-09T07:38:51;5.40;;;3.47;;
12480;SDS011;6305;48.398;11.762;2022-09-09T07:41:20;4.35;;;3.28;;
12480;SDS011;6305;48.398;11.762;2022-09-09T07:43:49;3.53;;;2.95;;
12480;SDS011;6305;48.398;11.762;2022-09-09T07:46:17;5.25;;;2.72;;
12480;SDS011;6305;48.398;11.762;2022-09-09T07:48:45;4.93;;;2.80;;
12480;SDS011;6305;48.398;11.762;2022-09-09T07:51:16;3.58;;;2.63;;
12480;SDS011;6305;48.398;11.762;2022-09-09T07:53:46;5.53;;;2.80;;
12480;SDS011;6305;48.398;11.762;2022-09-09T07:56:14;4.43;;;2.60;;
12480;SDS011;6305;48.398;11.762;2022-09-09T07:58:44;5.15;;;2.78;;
12480;SDS011;6305;48.398;11.762;2022-09-09T08:01:12;2.80;;;2.22;;
12480;SDS011;6305;48.398;11.762;2022-09-09T08:03:41;4.25;;;2.58;;
12480;SDS011;6305;48.398;11.762;2022-09-09T08:06:09;3.28;;;2.58;;
12480;SDS011;6305;48.398;11.762;2022-09-09T08:08:37;5.25;;;3.08;;
12480;SDS011;6305;48.398;11.762;2022-09-09T08:11:08;3.90;;;2.25;;
12480;SDS011;6305;48.398;11.762;2022-09-09T08:13:37;4.93;;;2.53;;
12480;SDS011;6305;48.398;11.762;2022-09-09T08:16:06;3.22;;;2.05;;
12480;SDS011;6305;48.398;11.762;2022-09-09T08:18:33;4.95;;;2.47;;
12480;SDS011;6305;48.398;11.762;2022-09-09T08:21:07;3.28;;;1.73;;
12480;SDS011;6305;48.398;11.762;2022-09-09T08:23:36;3.25;;;1.90;;
12480;SDS011;6305;48.398;11.762;2022-09-09T08:26:05;2.30;;;2.05;;
12480;SDS011;6305;48.398;11.762;2022-09-09T08:28:35;2.55;;;2.00;;
12480;SDS011;6305;48.398;11.762;2022-09-09T08:31:06;3.55;;;1.60;;
12480;SDS011;6305;48.398;11.762;2022-09-09T08:33:34;3.22;;;1.58;;
12480;SDS011;6305;48.398;11.762;2022-09-09T08:36:02;3.42;;;1.65;;
12480;SDS011;6305;48.398;11.762;2022-09-09T08:38:29;3.80;;;1.58;;
12480;SDS011;6305;48.398;11.762;2022-09-09T08:40:58;3.08;;;1.50;;
12480;SDS011;6305;48.398;11.762;2022-09-09T08:43:41;3.15;;;1.55;;
12480;SDS011;6305;48.398;11.762;2022-09-09T08:46:13;2.45;;;1.83;;
12480;SDS011;6305;48.398;11.762;2022-09-09T08:48:48;3.20;;;1.70;;
12480;SDS011;6305;48.398;11.762;2022-09-09T08:51:21;2.58;;;1.70;;
12480;SDS011;6305;48.398;11.762;2022-09-09T08:53:51;3.47;;;1.70;;
12480;SDS011;6305;48.398;11.762;2022-09-09T08:56:21;4.30;;;1.80;;
12480;SDS011;6305;48.398;11.762;2022-09-09T08:58:49;2.08;;;1.67;;
12480;SDS011;6305;48.398;11.762;2022-09-09T09:01:28;3.53;;;1.70;;
12480;SDS011;6305;48.398;11.762;2022-09-09T09:04:06;3.28;;;1.80;;
12480;SDS011;6305;48.398;11.762;2022-09-09T09:06:49;3.35;;;1.70;;
12480;SDS011;6305;48.398;11.762;2022-09-09T09:09:21;2.35;;;1.58;;
12480;SDS011;6305;48.398;11.762;2022-09-09T09:11:57;3.50;;;2.00;;
12480;SDS011;6305;48.398;11.762;2022-09-09T09:14:27;2.03;;;1.42;;
12480;SDS011;6305;48.398;11.762;2022-09-09T09:16:59;1.85;;;1.63;;
12480;SDS011;6305;48.398;11.762;2022-09-09T09:19:28;3.63;;;1.60;;
12480;SDS011;6305;48.398;11.762;2022-09-09T09:21:58;1.90;;;1.40;;
12480;SDS011;6305;48.398;11.762;2022-09-09T09:24:31;2.35;;;1.50;;
12480;SDS011;6305;48.398;11.762;2022-09-09T09:27:11;3.92;;;1.70;;
12480;SDS011;6305;48.398;11.762;2022-09-09T09:29:39;2.28;;;1.63;;
12480;SDS011;6305;48.398;11.762;2022-09-09T09:32:08;2.72;;;1.70;;
12480;SDS011;6305;48.398;11.762;2022-09-09T09:34:38;1.83;;;1.55;;
12480;SDS011;6305;48.398;11.762;2022-09-09T09:37:07;3.05;;;1.67;;
12480;SDS011;6305;48.398;11.762;2022-09-09T09:39:44;4.30;;;2.10;;
12480;SDS011;6305;48.398;11.762;2022-09-09T09:42:14;2.78;;;1.70;;
12480;SDS011;6305;48.398;11.762;2022-09-09T09:44:43;5.32;;;1.90;;
12480;SDS011;6305;48.398;11.762;2022-09-09T09:47:11;3.03;;;1.90;;
12480;SDS011;6305;48.398;11.762;2022-09-09T09:49:39;2.40;;;2.00;;
12480;SDS011;6305;48.398;11.762;2022-09-09T09:52:17;2.67;;;1.80;;
12480;SDS011;6305;48.398;11.762;2022-09-09T09:54:49;3.20;;;2.08;;
12480;SDS011;6305;48.398;11.762;2022-09-09T09:57:18;2.13;;;1.75;;
12480;SDS011;6305;48.398;11.762;2022-09-09T09:59:59;5.43;;;2.28;;
12480;SDS011;6305;48.398;11.762;2022-09-09T10:02:31;3.45;;;1.80;;
12480;SDS011;6305;48.398;11.762;2022-09-09T10:05:06;3.17;;;2.13;;
12480;SDS011;6305;48.398;11.762;2022-09-09T10:07:38;4.13;;;2.50;;
12480;SDS011;6305;48.398;11.762;2022-09-09T10:10:05;4.90;;;2.80;;
12480;SDS011;6305;48.398;11.762;2022-09-09T10:12:40;3.10;;;2.40;;
12480;SDS011;6305;48.398;11.762;2022-09-09T10:15:22;2.40;;;2.20;;
12480;SDS011;6305;48.398;11.762;2022-09-09T10:17:59;5.07;;;2.50;;
12480;SDS011;6305;48.398;11.762;2022-09-09T10:20:35;2.90;;;2.63;;
12480;SDS011;6305;48.398;11.762;2022-09-09T10:23:13;2.58;;;2.05;;
12480;SDS011;6305;48.398;11.762;2022-09-09T10:25:57;4.60;;;2.38;;
12480;SDS011;6305;48.398;11.762;2022-09-09T10:28:41;3.88;;;2.00;;
12480;SDS011;6305;48.398;11.762;2022-09-09T10:31:28;3.25;;;2.10;;
12480;SDS011;6305;48.398;11.762;2022-09-09T10:34:06;3.63;;;1.90;;
12480;SDS011;6305;48.398;11.762;2022-09-09T10:36:44;2.78;;;1.95;;
12480;SDS011;6305;48.398;11.762;2022-09-09T10:39:17;3.47;;;1.92;;
12480;SDS011;6305;48.398;11.762;2022-09-09T10:41:55;2.20;;;1.95;;
12480;SDS011;6305;48.398;11.762;2022-09-09T10:47:32;4.03;;;1.83;;
12480;SDS011;6305;48.398;11.762;2022-09-09T10:50:29;2.72;;;1.85;;
12480;SDS011;6305;48.398;11.762;2022-09-09T10:53:18;2.65;;;1.92;;
12480;SDS011;6305;48.398;11.762;2022-09-09T10:55:53;3.45;;;1.83;;
12480;SDS011;6305;48.398;11.762;2022-09-09T10:58:27;2.95;;;2.20;;
12480;SDS011;6305;48.398;11.762;2022-09-09T11:01:01;2.40;;;2.20;;
12480;SDS011;6305;48.398;11.762;2022-09-09T11:03:35;2.45;;;2.10;;
12480;SDS011;6305;48.398;11.762;2022-09-09T11:06:06;4.70;;;2.00;;
12480;SDS011;6305;48.398;11.762;2022-09-09T11:08:39;3.70;;;2.40;;
12480;SDS011;6305;48.398;11.762;2022-09-09T11:11:08;3.53;;;2.42;;
12480;SDS011;6305;48.398;11.762;2022-09-09T11:13:42;3.33;;;2.20;;
12480;SDS011;6305;48.398;11.762;2022-09-09T11:16:19;3.47;;;2.30;;
12480;SDS011;6305;48.398;11.762;2022-09-09T11:18:50;3.08;;;1.98;;
12480;SDS011;6305;48.398;11.762;2022-09-09T11:21:24;4.60;;;2.10;;
12480;SDS011;6305;48.398;11.762;2022-09-09T11:23:55;2.47;;;1.80;;
12480;SDS011;6305;48.398;11.762;2022-09-09T11:26:28;4.82;;;1.80;;
12480;SDS011;6305;48.398;11.762;2022-09-09T11:29:02;2.45;;;2.00;;
12480;SDS011;6305;48.398;11.762;2022-09-09T11:31:46;2.30;;;1.80;;
12480;SDS011;6305;48.398;11.762;2022-09-09T11:34:29;2.38;;;1.30;;
12480;SDS011;6305;48.398;11.762;2022-09-09T11:37:21;2.42;;;1.50;;
12480;SDS011;6305;48.398;11.762;2022-09-09T11:42:46;3.38;;;1.45;;
12480;SDS011;6305;48.398;11.762;2022-09-09T11:45:21;1.48;;;1.33;;
12480;SDS011;6305;48.398;11.762;2022-09-09T11:47:55;2.90;;;1.40;;
12480;SDS011;6305;48.398;11.762;2022-09-09T11:50:30;3.42;;;1.30;;
12480;SDS011;6305;48.398;11.762;2022-09-09T11:53:05;1.75;;;1.40;;
12480;SDS011;6305;48.398;11.762;2022-09-09T11:55:47;3.80;;;1.30;;
12480;SDS011;6305;48.398;11.762;2022-09-09T11:58:26;3.05;;;1.65;;
12480;SDS011;6305;48.398;11.762;2022-09-09T12:00:57;1.23;;;1.13;;
12480;SDS011;6305;48.398;11.762;2022-09-09T12:03:36;1.80;;;1.17;;
12480;SDS011;6305;48.398;11.762;2022-09-09T12:06:09;2.25;;;1.20;;
12480;SDS011;6305;48.398;11.762;2022-09-09T12:08:39;3.15;;;1.23;;
12480;SDS011;6305;48.398;11.762;2022-09-09T12:11:09;1.90;;;1.15;;
12480;SDS011;6305;48.398;11.762;2022-09-09T12:13:37;1.45;;;1.10;;
12480;SDS011;6305;48.398;11.762;2022-09-09T12:16:05;2.30;;;1.20;;
12480;SDS011;6305;48.398;11.762;2022-09-09T12:18:32;1.63;;;1.10;;
12480;SDS011;6305;48.398;11.762;2022-09-09T12:21:04;2.78;;;1.45;;
12480;SDS011;6305;48.398;11.762;2022-09-09T12:23:39;1.25;;;1.08;;
12480;SDS011;6305;48.398;11.762;2022-09-09T12:26:16;2.88;;;1.20;;
12480;SDS011;6305;48.398;11.762;2022-09-09T12:28:53;1.30;;;1.05;;
12480;SDS011;6305;48.398;11.762;2022-09-09T12:31:31;1.00;;;0.82;;
12480;SDS011;6305;48.398;11.762;2022-09-09T12:34:04;1.45;;;1.05;;
12480;SDS011;6305;48.398;11.762;2022-09-09T12:36:37;1.10;;;0.85;;
12480;SDS011;6305;48.398;11.762;2022-09-09T12:39:09;0.85;;;0.85;;
12480;SDS011;6305;48.398;11.762;2022-09-09T12:41:49;1.67;;;0.80;;
12480;SDS011;6305;48.398;11.762;2022-09-09T12:44:18;2.33;;;0.85;;
12480;SDS011;6305;48.398;11.762;2022-09-09T12:46:45;2.58;;;1.02;;
12480;SDS011;6305;48.398;11.762;2022-09-09T12:49:22;1.25;;;0.80;;
12480;SDS011;6305;48.398;11.762;2022-09-09T12:51:55;1.52;;;0.85;;
12480;SDS011;6305;48.398;11.762;2022-09-09T12:54:23;0.70;;;0.70;;
12480;SDS011;6305;48.398;11.762;2022-09-09T12:56:50;2.85;;;0.88;;
12480;SDS011;6305;48.398;11.762;2022-09-09T12:59:21;1.95;;;0.82;;
12480;SDS011;6305;48.398;11.762;2022-09-09T13:01:55;0.75;;;0.70;;
12480;SDS011;6305;48.398;11.762;2022-09-09T13:04:22;0.90;;;0.70;;
12480;SDS011;6305;48.398;11.762;2022-09-09T13:06:49;1.55;;;1.08;;
12480;SDS011;6305;48.398;11.762;2022-09-09T13:09:18;1.50;;;0.70;;
12480;SDS011;6305;48.398;11.762;2022-09-09T13:11:46;2.40;;;0.70;;
12480;SDS011;6305;48.398;11.762;2022-09-09T13:14:17;1.95;;;0.80;;
12480;SDS011;6305;48.398;11.762;2022-09-09T13:16:54;0.70;;;0.70;;
12480;SDS011;6305;48.398;11.762;2022-09-09T13:19:23;1.00;;;0.80;;
12480;SDS011;6305;48.398;11.762;2022-09-09T13:21:52;1.23;;;0.70;;
12480;SDS011;6305;48.398;11.762;2022-09-09T13:24:26;1.70;;;0.80;;
12480;SDS011;6305;48.398;11.762;2022-09-09T13:26:55;0.88;;;0.68;;
12480;SDS011;6305;48.398;11.762;2022-09-09T13:29:23;0.90;;;0.70;;
12480;SDS011;6305;48.398;11.762;2022-09-09T13:31:50;0.93;;;0.60;;
12480;SDS011;6305;48.398;11.762;2022-09-09T13:34:26;1.33;;;0.70;;
12480;SDS011;6305;48.398;11.762;2022-09-09T13:36:56;0.88;;;0.60;;
12480;SDS011;6305;48.398;11.762;2022-09-09T13:39:28;1.13;;;0.47;;
12480;SDS011;6305;48.398;11.762;2022-09-09T13:41:54;1.38;;;0.70;;
12480;SDS011;6305;48.398;11.762;2022-09-09T13:44:23;1.63;;;0.75;;
12480;SDS011;6305;48.398;11.762;2022-09-09T13:47:02;1.85;;;0.73;;
12480;SDS011;6305;48.398;11.762;2022-09-09T13:49:30;1.00;;;0.75;;
12480;SDS011;6305;48.398;11.762;2022-09-09T13:52:08;0.80;;;0.68;;
12480;SDS011;6305;48.398;11.762;2022-09-09T13:54:37;0.80;;;0.80;;
12480;SDS011;6305;48.398;11.762;2022-09-09T13:57:04;3.55;;;1.08;;
12480;SDS011;6305;48.398;11.762;2022-09-09T13:59:31;4.25;;;0.85;;
12480;SDS011;6305;48.398;11.762;2022-09-09T14:01:58;0.70;;;0.70;;
12480;SDS011;6305;48.398;11.762;2022-09-09T14:04:26;1.90;;;0.75;;
12480;SDS011;6305;48.398;11.762;2022-09-09T14:06:53;2.05;;;0.80;;
12480;SDS011;6305;48.398;11.762;2022-09-09T14:09:21;1.50;;;0.80;;
12480;SDS011;6305;48.398;11.762;2022-09-09T14:11:49;0.90;;;0.77;;
12480;SDS011;6305;48.398;11.762;2022-09-09T14:14:16;2.42;;;0.88;;
12480;SDS011;6305;48.398;11.762;2022-09-09T14:16:43;0.75;;;0.57;;
12480;SDS011;6305;48.398;11.762;2022-09-09T14:19:10;0.80;;;0.60;;
12480;SDS011;6305;48.398;11.762;2022-09-09T14:21:37;0.60;;;0.55;;
12480;SDS011;6305;48.398;11.762;2022-09-09T14:24:04;2.28;;;0.93;;
12480;SDS011;6305;48.398;11.762;2022-09-09T14:26:30;0.55;;;0.55;;
12480;SDS011;6305;48.398;11.762;2022-09-09T14:28:59;1.58;;;0.80;;
12480;SDS011;6305;48.398;11.762;2022-09-09T14:31:26;0.60;;;0.55;;
12480;SDS011;6305;48.398;11.762;2022-09-09T14:33:53;2.13;;;0.68;;
12480;SDS011;6305;48.398;11.762;2022-09-09T14:36:20;1.52;;;0.80;;
12480;SDS011;6305;48.398;11.762;2022-09-09T14:38:47;1.38;;;0.88;;
12480;SDS011;6305;48.398;11.762;2022-09-09T14:41:15;1.33;;;0.80;;
12480;SDS011;6305;48.398;11.762;2022-09-09T14:43:43;1.42;;;0.70;;
12480;SDS011;6305;48.398;11.762;2022-09-09T14:46:12;1.17;;;0.63;;
12480;SDS011;6305;48.398;11.762;2022-09-09T14:48:40;1.13;;;0.70;;
12480;SDS011;6305;48.398;11.762;2022-09-09T14:51:09;1.73;;;0.70;;
12480;SDS011;6305;48.398;11.762;2022-09-09T14:53:37;1.13;;;0.80;;
12480;SDS011;6305;48.398;11.762;2022-09-09T14:56:05;0.93;;;0.70;;
12480;SDS011;6305;48.398;11.762;2022-09-09T14:58:33;1.50;;;0.57;;
12480;SDS011;6305;48.398;11.762;2022-09-09T15:01:03;1.13;;;0.70;;
12480;SDS011;6305;48.398;11.762;2022-09-09T15:03:33;1.58;;;0.93;;
12480;SDS011;6305;48.398;11.762;2022-09-09T15:06:04;3.55;;;0.80;;
12480;SDS011;6305;48.398;11.762;2022-09-09T15:08:33;0.50;;;0.50;;